createdAt,value
2022-10-03T00:01:59.199Z,10.10
2022-10-03T00:05:01.523Z,10.10
2022-10-03T00:07:51.376Z,10.00
2022-10-03T00:10:31.754Z,10.00
2022-10-03T00:13:21.701Z,10.00
2022-10-03T00:15:56.513Z,9.90
2022-10-03T00:18:38.162Z,9.90
2022-10-03T00:21:26.716Z,9.80
2022-10-03T00:24:07.291Z,9.80
2022-10-03T00:26:46.767Z,9.80
2022-10-03T00:29:27.782Z,9.70
2022-10-03T00:32:05.416Z,9.70
2022-10-03T00:34:46.842Z,9.70
2022-10-03T00:37:28.497Z,9.70
2022-10-03T00:40:36.166Z,9.60
2022-10-03T00:43:35.576Z,9.60
2022-10-03T00:46:44.647Z,9.60
2022-10-03T00:49:48.814Z,9.60
2022-10-03T00:52:45.626Z,9.50
2022-10-03T00:55:24.517Z,9.50
2022-10-03T00:58:10.832Z,9.50
2022-10-03T01:00:43.667Z,9.50
2022-10-03T01:03:32.415Z,9.40
2022-10-03T01:06:17.706Z,9.40
2022-10-03T01:09:06.842Z,9.40
2022-10-03T01:12:01.751Z,9.40
2022-10-03T01:14:49.196Z,9.40
2022-10-03T01:17:26.636Z,9.30
2022-10-03T01:20:15.457Z,9.30
2022-10-03T01:23:07.737Z,9.40
2022-10-03T01:25:42.675Z,9.30
2022-10-03T01:28:47.730Z,9.30
2022-10-03T01:31:24.486Z,9.20
2022-10-03T01:34:01.975Z,9.20
2022-10-03T01:36:36.064Z,9.20
2022-10-03T01:39:16.102Z,9.10
2022-10-03T01:41:53.164Z,9.10
2022-10-03T01:44:27.580Z,9.10
2022-10-03T01:47:06.592Z,9.10
2022-10-03T01:49:41.269Z,9.10
2022-10-03T01:52:16.694Z,9.00
2022-10-03T01:54:57.729Z,9.00
2022-10-03T01:57:36.065Z,9.00
2022-10-03T02:00:10.331Z,9.10
2022-10-03T02:02:46.387Z,9.10
2022-10-03T02:05:26.035Z,9.10
2022-10-03T02:08:01.593Z,9.10
2022-10-03T02:10:42.652Z,9.00
2022-10-03T02:13:15.384Z,8.90
2022-10-03T02:15:58.567Z,8.90
2022-10-03T02:18:36.137Z,8.90
2022-10-03T02:21:14.365Z,8.90
2022-10-03T02:23:45.892Z,8.90
2022-10-03T02:26:46.800Z,8.90
2022-10-03T02:29:29.164Z,8.80
2022-10-03T02:32:43.757Z,8.80
2022-10-03T02:35:28.765Z,8.80
2022-10-03T02:38:13.863Z,8.80
2022-10-03T02:41:25.160Z,8.80
2022-10-03T02:44:16.598Z,8.80
2022-10-03T02:47:19.394Z,8.80
2022-10-03T02:50:43.941Z,8.70
2022-10-03T02:53:47.272Z,8.60
2022-10-03T02:56:41.269Z,8.70
2022-10-03T02:59:41.749Z,8.70
2022-10-03T03:02:35.522Z,8.60
2022-10-03T03:05:26.070Z,8.70
2022-10-03T03:08:26.579Z,8.60
2022-10-03T03:11:18.662Z,8.60
2022-10-03T03:14:32.015Z,8.60
2022-10-03T03:17:12.924Z,8.60
2022-10-03T03:20:15.982Z,8.60
2022-10-03T03:23:03.000Z,8.60
2022-10-03T03:25:47.705Z,8.50
2022-10-03T03:28:26.880Z,8.50
2022-10-03T03:31:06.737Z,8.40
2022-10-03T03:34:22.250Z,8.50
2022-10-03T03:36:56.507Z,8.40
2022-10-03T03:39:43.941Z,8.50
2022-10-03T03:42:32.445Z,8.50
2022-10-03T03:45:16.975Z,8.50
2022-10-03T03:48:12.374Z,8.40
2022-10-03T03:51:00.702Z,8.40
2022-10-03T03:53:49.557Z,8.40
2022-10-03T03:56:38.362Z,8.30
2022-10-03T03:59:23.053Z,8.30
2022-10-03T04:02:06.563Z,8.30
2022-10-03T04:04:53.154Z,8.30
2022-10-03T04:07:38.136Z,8.20
2022-10-03T04:10:18.476Z,8.30
2022-10-03T04:13:05.469Z,8.20
2022-10-03T04:15:53.235Z,8.20
2022-10-03T04:18:58.627Z,8.20
2022-10-03T04:21:55.674Z,8.20
2022-10-03T04:24:54.397Z,8.10
2022-10-03T04:27:43.258Z,8.10
2022-10-03T04:30:35.508Z,8.10
2022-10-03T04:33:23.428Z,8.00
2022-10-03T04:36:24.191Z,8.00
2022-10-03T04:39:05.710Z,8.00
2022-10-03T04:41:43.499Z,8.00
2022-10-03T04:44:27.125Z,8.00
2022-10-03T04:47:00.613Z,8.00
2022-10-03T04:49:39.038Z,8.00
2022-10-03T04:52:19.225Z,8.00
2022-10-03T04:54:55.274Z,8.00
2022-10-03T04:57:32.078Z,8.00
2022-10-03T05:00:10.166Z,8.00
2022-10-03T05:02:52.466Z,8.00
2022-10-03T05:05:41.434Z,7.90
2022-10-03T05:08:21.269Z,8.00
2022-10-03T05:10:58.258Z,8.00
2022-10-03T05:13:45.480Z,7.90
2022-10-03T05:16:21.983Z,8.00
2022-10-03T05:18:55.112Z,7.90
2022-10-03T05:21:34.670Z,8.00
2022-10-03T05:24:18.074Z,8.00
2022-10-03T05:26:59.026Z,8.00
2022-10-03T05:29:39.520Z,7.90
2022-10-03T05:32:21.201Z,7.90
2022-10-03T05:35:07.799Z,7.90
2022-10-03T05:38:16.652Z,7.90
2022-10-03T05:41:03.137Z,7.90
2022-10-03T05:43:47.859Z,7.80
2022-10-03T05:46:23.994Z,7.80
2022-10-03T05:49:02.089Z,7.90
2022-10-03T05:51:46.749Z,7.80
2022-10-03T05:54:48.823Z,7.90
2022-10-03T05:57:58.270Z,7.90
2022-10-03T06:00:41.029Z,7.90
2022-10-03T06:04:03.814Z,7.90
2022-10-03T06:06:44.313Z,7.90
2022-10-03T06:09:38.449Z,7.90
2022-10-03T06:12:14.329Z,7.90
2022-10-03T06:15:27.823Z,8.00
2022-10-03T06:18:04.041Z,8.00
2022-10-03T06:21:14.826Z,8.00
2022-10-03T06:24:25.994Z,8.00
2022-10-03T06:27:26.293Z,8.10
2022-10-03T06:30:12.208Z,8.20
2022-10-03T06:33:22.984Z,8.20
2022-10-03T06:36:31.243Z,8.30
2022-10-03T06:39:39.120Z,8.40
2022-10-03T06:42:37.551Z,8.50
2022-10-03T06:45:36.042Z,8.60
2022-10-03T06:48:32.710Z,8.70
2022-10-03T06:51:32.116Z,8.90
2022-10-03T06:54:32.822Z,9.20
2022-10-03T06:57:20.611Z,9.50
2022-10-03T07:00:11.900Z,9.70
2022-10-03T07:03:10.410Z,10.00
2022-10-03T07:06:14.867Z,10.30
2022-10-03T07:09:34.293Z,10.30
2022-10-03T07:12:36.808Z,10.50
2022-10-03T07:16:25.980Z,10.70
2022-10-03T07:19:17.490Z,10.90
2022-10-03T07:22:36.118Z,11.00
2022-10-03T07:25:42.253Z,11.00
2022-10-03T07:28:49.013Z,11.10
2022-10-03T07:31:26.314Z,11.20
2022-10-03T07:34:32.566Z,11.30
2022-10-03T07:37:49.942Z,11.30
2022-10-03T07:40:57.005Z,11.40
2022-10-03T07:43:49.366Z,11.60
2022-10-03T07:46:50.865Z,12.10
2022-10-03T07:49:47.146Z,12.30
2022-10-03T07:52:45.622Z,12.50
2022-10-03T07:55:32.204Z,12.50
2022-10-03T07:58:34.936Z,12.60
2022-10-03T08:01:28.900Z,12.70
2022-10-03T08:04:44.335Z,12.80
2022-10-03T08:07:36.557Z,12.90
2022-10-03T08:10:31.727Z,13.00
2022-10-03T08:13:17.068Z,13.10
2022-10-03T08:16:20.720Z,13.20
2022-10-03T08:19:11.745Z,13.30
2022-10-03T08:21:58.000Z,13.40
2022-10-03T08:25:02.891Z,13.40
2022-10-03T08:27:54.726Z,13.60
2022-10-03T08:30:25.421Z,13.80
2022-10-03T08:33:19.960Z,14.00
2022-10-03T08:36:13.765Z,14.00
2022-10-03T08:38:55.218Z,14.10
2022-10-03T08:42:25.025Z,14.20
2022-10-03T08:45:31.882Z,14.30
2022-10-03T08:48:44.546Z,14.50
2022-10-03T08:51:47.947Z,14.70
2022-10-03T08:54:39.045Z,14.70
2022-10-03T08:57:40.440Z,14.60
2022-10-03T09:00:21.185Z,14.70
2022-10-03T09:03:34.341Z,14.80
2022-10-03T09:07:05.067Z,14.80
2022-10-03T09:10:02.891Z,14.90
2022-10-03T09:13:04.354Z,14.90
2022-10-03T09:16:20.856Z,15.00
2022-10-03T09:19:08.603Z,15.20
2022-10-03T09:22:14.941Z,15.30
2022-10-03T09:25:30.932Z,15.30
2022-10-03T09:28:48.052Z,15.30
2022-10-03T09:31:30.251Z,15.40
2022-10-03T09:34:29.249Z,15.40
2022-10-03T09:37:31.402Z,15.50
2022-10-03T09:40:44.328Z,15.50
2022-10-03T09:43:57.979Z,15.60
2022-10-03T09:47:18.072Z,15.80
2022-10-03T09:50:19.246Z,16.00
2022-10-03T09:53:13.862Z,16.10
2022-10-03T09:56:05.884Z,16.00
2022-10-03T09:59:02.383Z,16.10
2022-10-03T10:01:35.922Z,16.20
2022-10-03T10:04:56.543Z,16.40
2022-10-03T10:08:02.679Z,16.40
2022-10-03T10:10:57.933Z,16.50
2022-10-03T10:14:08.532Z,16.70
2022-10-03T10:17:05.471Z,16.90
2022-10-03T10:19:55.820Z,17.00
2022-10-03T10:23:11.901Z,17.10
2022-10-03T10:26:11.019Z,17.30
2022-10-03T10:29:08.972Z,17.30
2022-10-03T10:32:11.343Z,17.20
2022-10-03T10:35:27.185Z,17.40
2022-10-03T10:38:26.149Z,17.90
2022-10-03T10:41:29.701Z,18.10
2022-10-03T10:44:49.546Z,17.90
2022-10-03T10:47:48.891Z,17.80
2022-10-03T10:51:05.260Z,17.70
2022-10-03T10:54:10.451Z,17.90
2022-10-03T10:57:15.338Z,18.00
2022-10-03T11:00:07.916Z,17.90
2022-10-03T11:03:35.798Z,18.10
2022-10-03T11:06:37.664Z,18.10
2022-10-03T11:09:32.550Z,18.10
2022-10-03T11:12:37.646Z,17.90
2022-10-03T11:15:44.594Z,18.00
2022-10-03T11:18:49.757Z,17.80
2022-10-03T11:22:06.235Z,17.80
2022-10-03T11:25:19.029Z,17.60
2022-10-03T11:28:27.731Z,17.70
2022-10-03T11:31:33.039Z,17.70
2022-10-03T11:34:42.543Z,17.70
2022-10-03T11:37:31.034Z,18.00
2022-10-03T11:40:24.459Z,17.90
2022-10-03T11:43:36.621Z,17.90
2022-10-03T11:50:14.190Z,18.30
2022-10-03T11:53:22.297Z,18.80
2022-10-03T11:56:29.742Z,18.90
2022-10-03T11:59:35.555Z,18.90
2022-10-03T12:02:34.590Z,19.30
2022-10-03T12:05:43.269Z,19.50
2022-10-03T12:08:53.445Z,19.80
2022-10-03T12:11:40.974Z,19.90
2022-10-03T12:14:35.743Z,19.80
2022-10-03T12:17:10.596Z,19.60
2022-10-03T12:19:50.084Z,19.80
2022-10-03T12:22:32.036Z,19.70
2022-10-03T12:25:18.265Z,19.50
2022-10-03T12:28:04.168Z,19.50
2022-10-03T12:30:48.981Z,19.30
2022-10-03T12:33:45.646Z,19.30
2022-10-03T12:36:19.839Z,19.20
2022-10-03T12:39:01.799Z,19.20
2022-10-03T12:41:49.055Z,19.00
2022-10-03T12:44:36.541Z,18.80
2022-10-03T12:47:54.159Z,18.80
2022-10-03T12:50:33.647Z,18.80
2022-10-03T12:53:28.568Z,18.80
2022-10-03T12:56:16.263Z,18.80
2022-10-03T12:58:53.477Z,18.90
2022-10-03T13:01:29.589Z,19.00
2022-10-03T13:04:02.781Z,19.10
2022-10-03T13:07:04.081Z,19.20
2022-10-03T13:10:20.122Z,19.40
2022-10-03T13:13:33.716Z,19.10
2022-10-03T13:16:41.071Z,19.00
2022-10-03T13:19:15.445Z,19.40
2022-10-03T13:22:07.136Z,19.80
2022-10-03T13:24:58.959Z,20.10
2022-10-03T13:28:16.929Z,19.70
2022-10-03T13:31:05.107Z,19.20
2022-10-03T13:34:13.422Z,19.00
2022-10-03T13:36:48.025Z,18.70
2022-10-03T13:39:23.955Z,18.60
2022-10-03T13:42:13.600Z,18.60
2022-10-03T13:45:28.488Z,18.80
2022-10-03T13:48:15.088Z,18.70
2022-10-03T13:50:58.599Z,18.70
2022-10-03T13:53:50.243Z,18.50
2022-10-03T13:56:31.520Z,18.60
2022-10-03T13:59:10.623Z,18.50
2022-10-03T14:01:49.010Z,18.40
2022-10-03T14:05:05.554Z,18.40
2022-10-03T14:07:56.013Z,18.30
2022-10-03T14:10:52.031Z,18.30
2022-10-03T14:13:37.512Z,18.20
2022-10-03T14:16:20.508Z,18.10
2022-10-03T14:18:57.420Z,18.10
2022-10-03T14:21:55.589Z,18.10
2022-10-03T14:24:53.251Z,18.00
2022-10-03T14:27:42.030Z,17.90
2022-10-03T14:30:32.954Z,17.90
2022-10-03T14:33:22.354Z,17.90
2022-10-03T14:36:05.178Z,17.70
2022-10-03T14:39:02.287Z,17.60
2022-10-03T14:41:46.227Z,17.60
2022-10-03T14:44:19.855Z,17.50
2022-10-03T14:46:54.686Z,17.50
2022-10-03T14:52:30.470Z,17.50
2022-10-03T14:55:14.374Z,17.40
2022-10-03T14:58:11.219Z,17.40
2022-10-03T15:00:51.210Z,17.40
2022-10-03T15:03:33.794Z,17.50
2022-10-03T15:06:34.836Z,17.50
2022-10-03T15:09:09.875Z,17.50
2022-10-03T15:11:47.741Z,17.40
2022-10-03T15:14:16.413Z,17.40
2022-10-03T15:16:54.143Z,17.50
2022-10-03T15:19:29.410Z,17.50
2022-10-03T15:22:04.567Z,17.40
2022-10-03T15:24:35.336Z,17.40
2022-10-03T15:27:14.348Z,17.40
2022-10-03T15:29:46.383Z,17.50
2022-10-03T15:32:27.708Z,17.40
2022-10-03T15:35:02.831Z,17.40
2022-10-03T15:37:35.679Z,17.20
2022-10-03T15:40:25.578Z,17.20
2022-10-03T15:43:07.948Z,17.10
2022-10-03T15:45:40.845Z,17.10
2022-10-03T15:48:17.756Z,17.10
2022-10-03T15:51:03.576Z,17.10
2022-10-03T15:53:59.343Z,17.20
2022-10-03T15:56:41.290Z,17.10
2022-10-03T15:59:21.478Z,17.10
2022-10-03T16:02:31.189Z,17.10
2022-10-03T16:05:19.672Z,17.10
2022-10-03T16:08:02.789Z,17.00
2022-10-03T16:10:40.526Z,17.00
2022-10-03T16:13:25.164Z,16.90
2022-10-03T16:16:23.756Z,16.90
2022-10-03T16:18:57.271Z,16.90
2022-10-03T16:21:41.659Z,16.80
2022-10-03T16:24:45.473Z,16.80
2022-10-03T16:27:25.875Z,16.80
2022-10-03T16:29:59.960Z,16.70
2022-10-03T16:32:37.623Z,16.60
2022-10-03T16:35:30.492Z,16.60
2022-10-03T16:38:35.086Z,16.50
2022-10-03T16:41:16.430Z,16.50
2022-10-03T16:44:03.082Z,16.40
2022-10-03T16:46:40.746Z,16.30
2022-10-03T16:50:03.673Z,16.30
2022-10-03T16:52:37.552Z,16.20
2022-10-03T16:55:08.603Z,16.10
2022-10-03T16:57:48.078Z,16.10
2022-10-03T17:00:22.166Z,16.00
2022-10-03T17:02:51.260Z,16.00
2022-10-03T17:05:27.182Z,15.90
2022-10-03T17:08:06.621Z,15.90
2022-10-03T17:10:55.765Z,15.80
2022-10-03T17:13:30.872Z,15.80
2022-10-03T17:16:05.180Z,15.80
2022-10-03T17:18:41.590Z,15.80
2022-10-03T17:21:25.918Z,15.70
2022-10-03T17:24:05.386Z,15.70
2022-10-03T17:26:39.628Z,15.60
2022-10-03T17:29:18.265Z,15.60
2022-10-03T17:31:54.783Z,15.50
2022-10-03T17:34:29.579Z,15.50
2022-10-03T17:37:16.451Z,15.50
2022-10-03T17:39:56.403Z,15.50
2022-10-03T17:42:34.016Z,15.30
2022-10-03T17:45:16.793Z,15.30
2022-10-03T17:47:58.969Z,15.20
2022-10-03T17:50:31.978Z,15.20
2022-10-03T17:53:02.101Z,15.10
2022-10-03T17:55:35.237Z,15.10
2022-10-03T17:58:06.970Z,15.00
2022-10-03T18:01:01.447Z,14.90
2022-10-03T18:03:33.957Z,14.80
2022-10-03T18:06:24.463Z,14.80
2022-10-03T18:08:54.437Z,14.70
2022-10-03T18:11:25.160Z,14.70
2022-10-03T18:14:01.363Z,14.60
2022-10-03T18:16:35.687Z,14.60
2022-10-03T18:19:35.889Z,14.50
2022-10-03T18:22:15.622Z,14.50
2022-10-03T18:24:54.141Z,14.40
2022-10-03T18:27:47.365Z,14.40
2022-10-03T18:30:18.776Z,14.40
2022-10-03T18:32:49.695Z,14.40
2022-10-03T18:35:23.443Z,14.40
2022-10-03T18:38:07.493Z,14.40
2022-10-03T18:40:37.931Z,14.40
2022-10-03T18:43:07.668Z,14.30
2022-10-03T18:45:43.051Z,14.30
2022-10-03T18:48:19.686Z,14.20
2022-10-03T18:50:59.315Z,14.10
2022-10-03T18:53:36.358Z,14.00
2022-10-03T18:56:10.956Z,14.00
2022-10-03T18:58:43.877Z,14.00
2022-10-03T19:01:19.317Z,14.00
2022-10-03T19:03:56.490Z,14.00
2022-10-03T19:06:28.472Z,14.00
2022-10-03T19:09:00.670Z,14.00
2022-10-03T19:11:33.225Z,13.90
2022-10-03T19:14:09.905Z,13.90
2022-10-03T19:16:59.377Z,13.90
2022-10-03T19:19:41.714Z,13.90
2022-10-03T19:22:15.572Z,14.00
2022-10-03T19:24:58.529Z,13.90
2022-10-03T19:27:41.811Z,13.90
2022-10-03T19:30:20.835Z,14.00
2022-10-03T19:32:59.380Z,13.90
2022-10-03T19:35:34.925Z,13.90
2022-10-03T19:38:18.715Z,13.90
2022-10-03T19:40:55.456Z,14.00
2022-10-03T19:43:45.445Z,14.00
2022-10-03T19:46:40.256Z,14.00
2022-10-03T19:49:25.475Z,13.90
2022-10-03T19:52:19.107Z,13.90
2022-10-03T19:54:54.682Z,13.90
2022-10-03T19:57:33.523Z,13.90
2022-10-03T20:00:05.766Z,13.90
2022-10-03T20:02:36.454Z,14.00
2022-10-03T20:05:07.439Z,13.90
2022-10-03T20:07:46.541Z,13.90
2022-10-03T20:10:42.487Z,13.90
2022-10-03T20:13:12.867Z,13.90
2022-10-03T20:15:52.286Z,13.90
2022-10-03T20:18:52.863Z,13.90
2022-10-03T20:21:28.140Z,13.80
2022-10-03T20:23:59.071Z,13.80
2022-10-03T20:26:36.015Z,13.80
2022-10-03T20:29:23.983Z,13.80
2022-10-03T20:31:53.794Z,13.80
2022-10-03T20:34:25.023Z,13.80
2022-10-03T20:37:03.463Z,13.80
2022-10-03T20:39:44.711Z,13.80
2022-10-03T20:42:17.708Z,13.80
2022-10-03T20:45:03.178Z,13.80
2022-10-03T20:47:57.542Z,13.80
2022-10-03T20:50:30.761Z,13.80
2022-10-03T20:53:00.655Z,13.80
2022-10-03T20:55:35.913Z,13.70
2022-10-03T20:58:15.871Z,13.70
2022-10-03T21:00:49.398Z,13.70
2022-10-03T21:03:29.897Z,13.60
2022-10-03T21:06:00.409Z,13.60
2022-10-03T21:08:30.576Z,13.60
2022-10-03T21:11:02.469Z,13.60
2022-10-03T21:13:36.348Z,13.60
2022-10-03T21:16:20.537Z,13.60
2022-10-03T21:18:56.021Z,13.60
2022-10-03T21:21:42.155Z,13.60
2022-10-03T21:24:17.413Z,13.60
2022-10-03T21:26:54.159Z,13.60
2022-10-03T21:29:30.729Z,13.50
2022-10-03T21:32:26.828Z,13.50
2022-10-03T21:35:16.817Z,13.40
2022-10-03T21:37:50.816Z,13.40
2022-10-03T21:40:39.133Z,13.40
2022-10-03T21:43:28.189Z,13.30
2022-10-03T21:46:10.176Z,13.30
2022-10-03T21:48:48.394Z,13.30
2022-10-03T21:51:27.175Z,13.30
2022-10-03T21:54:24.734Z,13.30
2022-10-03T21:57:01.970Z,13.30
2022-10-03T21:59:52.802Z,13.30
2022-10-03T22:02:28.142Z,13.30
2022-10-03T22:05:03.146Z,13.30
2022-10-03T22:07:38.815Z,13.30
2022-10-03T22:10:21.124Z,13.30
2022-10-03T22:13:09.076Z,13.30
2022-10-03T22:15:51.541Z,13.30
2022-10-03T22:18:26.709Z,13.30
2022-10-03T22:21:01.148Z,13.30
2022-10-03T22:23:39.984Z,13.30
2022-10-03T22:26:19.273Z,13.30
2022-10-03T22:28:56.423Z,13.30
2022-10-03T22:31:32.803Z,13.30
2022-10-03T22:34:21.539Z,13.30
2022-10-03T22:36:52.276Z,13.30
2022-10-03T22:39:23.545Z,13.30
2022-10-03T22:41:54.212Z,13.30
2022-10-03T22:44:28.269Z,13.30
2022-10-03T22:47:01.137Z,13.40
2022-10-03T22:49:35.197Z,13.30
2022-10-03T22:52:06.509Z,13.30
2022-10-03T22:54:38.577Z,13.40
2022-10-03T22:57:10.307Z,13.30
2022-10-03T23:00:12.014Z,13.30
2022-10-03T23:02:47.696Z,13.40
2022-10-03T23:05:26.815Z,13.40
2022-10-03T23:08:08.070Z,13.40
2022-10-03T23:10:51.063Z,13.30
2022-10-03T23:13:38.696Z,13.40
2022-10-03T23:16:29.668Z,13.40
2022-10-03T23:19:14.720Z,13.40
2022-10-03T23:21:47.363Z,13.40
2022-10-03T23:24:29.744Z,13.40
2022-10-03T23:27:37.737Z,13.40
2022-10-03T23:30:54.316Z,13.40
2022-10-03T23:33:53.901Z,13.30
2022-10-03T23:36:31.668Z,13.30
2022-10-03T23:39:01.428Z,13.30
2022-10-03T23:41:56.215Z,13.30
2022-10-03T23:44:54.205Z,13.30
2022-10-03T23:47:40.921Z,13.30
2022-10-03T23:50:20.858Z,13.30
2022-10-03T23:52:56.290Z,13.20
2022-10-03T23:55:27.472Z,13.20
2022-10-03T23:57:56.241Z,13.20
